createdAt,value
2019-02-20T00:01:19.638Z,1.90
2019-02-20T00:03:49.944Z,1.93
2019-02-20T00:06:20.250Z,1.87
2019-02-20T00:08:50.509Z,1.81
2019-02-20T00:11:20.922Z,1.71
2019-02-20T00:13:51.166Z,1.70
2019-02-20T00:16:21.517Z,1.78
2019-02-20T00:18:51.779Z,1.76
2019-02-20T00:21:21.954Z,1.70
2019-02-20T00:23:52.197Z,1.59
2019-02-20T00:26:22.429Z,1.62
2019-02-20T00:28:52.770Z,1.70
2019-02-20T00:31:23.163Z,1.52
2019-02-20T00:33:53.370Z,1.55
2019-02-20T00:36:23.605Z,1.67
2019-02-20T00:38:53.876Z,1.70
2019-02-20T00:41:24.213Z,1.67
2019-02-20T00:44:13.376Z,1.60
2019-02-20T00:46:55.378Z,1.58
2019-02-20T00:49:35.955Z,1.71
2019-02-20T00:52:21.761Z,1.65
2019-02-20T00:54:52.125Z,1.47
2019-02-20T00:57:22.374Z,1.45
2019-02-20T00:59:52.542Z,1.40
2019-02-20T01:02:22.858Z,1.38
2019-02-20T01:04:53.126Z,1.26
2019-02-20T01:07:23.517Z,1.35
2019-02-20T01:09:53.690Z,1.42
2019-02-20T01:12:24.225Z,1.23
2019-02-20T01:14:54.471Z,1.21
2019-02-20T01:17:24.617Z,1.25
2019-02-20T01:19:54.796Z,1.18
2019-02-20T01:22:25.023Z,1.26
2019-02-20T01:24:55.225Z,1.37
2019-02-20T01:27:25.518Z,1.26
2019-02-20T01:29:55.698Z,1.44
2019-02-20T01:32:25.995Z,1.22
2019-02-20T01:34:56.256Z,1.14
2019-02-20T01:37:26.464Z,0.98
2019-02-20T01:39:56.710Z,1.03
2019-02-20T01:42:27.052Z,1.17
2019-02-20T01:44:57.506Z,1.08
2019-02-20T01:47:27.945Z,1.08
2019-02-20T01:49:58.355Z,1.10
2019-02-20T01:52:28.741Z,1.04
2019-02-20T01:54:58.907Z,0.96
2019-02-20T01:57:29.103Z,0.99
2019-02-20T01:59:59.217Z,1.08
2019-02-20T02:02:29.477Z,0.96
2019-02-20T02:04:59.632Z,0.99
2019-02-20T02:07:29.765Z,0.85
2019-02-20T02:09:59.925Z,0.94
2019-02-20T02:12:30.125Z,0.94
2019-02-20T02:15:00.405Z,0.97
2019-02-20T02:17:30.554Z,0.87
2019-02-20T02:20:00.791Z,0.88
2019-02-20T02:22:31.086Z,0.79
2019-02-20T02:25:01.218Z,0.79
2019-02-20T02:27:31.354Z,0.85
2019-02-20T02:30:01.825Z,0.81
2019-02-20T02:32:31.937Z,0.72
2019-02-20T02:35:02.232Z,0.72
2019-02-20T02:37:32.516Z,0.78
2019-02-20T02:40:02.807Z,0.73
2019-02-20T02:42:32.986Z,0.82
2019-02-20T02:45:03.221Z,0.77
2019-02-20T02:47:33.411Z,0.78
2019-02-20T02:50:03.629Z,0.81
2019-02-20T02:52:36.908Z,0.94
2019-02-20T02:55:07.268Z,0.77
2019-02-20T02:57:37.494Z,0.70
2019-02-20T03:00:08.248Z,0.73
2019-02-20T03:02:38.519Z,0.79
2019-02-20T03:05:09.035Z,0.68
2019-02-20T03:07:41.304Z,0.70
2019-02-20T03:10:11.653Z,0.45
2019-02-20T03:12:41.876Z,0.57
2019-02-20T03:15:12.487Z,0.56
2019-02-20T03:17:42.647Z,0.53
2019-02-20T03:20:13.071Z,0.51
2019-02-20T03:22:43.381Z,0.53
2019-02-20T03:25:13.552Z,0.50
2019-02-20T03:27:43.906Z,0.53
2019-02-20T03:30:14.278Z,0.51
2019-02-20T03:32:44.410Z,0.45
2019-02-20T03:35:14.804Z,0.43
2019-02-20T03:37:44.949Z,0.47
2019-02-20T03:40:15.313Z,0.49
2019-02-20T03:42:45.583Z,0.58
2019-02-20T03:45:15.927Z,0.35
2019-02-20T03:47:46.168Z,0.34
2019-02-20T03:50:16.471Z,0.45
2019-02-20T03:52:46.768Z,0.27
2019-02-20T03:55:16.978Z,0.32
2019-02-20T03:57:47.343Z,0.29
2019-02-20T04:00:17.700Z,0.42
2019-02-20T04:02:47.968Z,0.49
2019-02-20T04:05:18.196Z,0.44
2019-02-20T04:07:48.419Z,0.37
2019-02-20T04:10:18.671Z,0.32
2019-02-20T04:12:49.024Z,0.41
2019-02-20T04:15:20.320Z,0.55
2019-02-20T04:17:50.504Z,0.54
2019-02-20T04:20:20.705Z,0.46
2019-02-20T04:22:50.815Z,0.46
2019-02-20T04:25:21.019Z,0.52
2019-02-20T04:27:51.256Z,0.51
2019-02-20T04:30:22.536Z,0.60
2019-02-20T04:32:52.766Z,0.60
2019-02-20T04:35:22.898Z,0.69
2019-02-20T04:37:53.105Z,0.75
2019-02-20T04:40:23.202Z,0.80
2019-02-20T04:43:01.301Z,0.98
2019-02-20T04:45:31.560Z,0.99
2019-02-20T04:48:01.671Z,1.01
2019-02-20T04:50:31.861Z,1.12
2019-02-20T04:53:01.999Z,1.11
2019-02-20T04:55:32.202Z,1.08
2019-02-20T04:58:19.920Z,1.13
2019-02-20T05:00:51.322Z,1.15
2019-02-20T05:03:23.151Z,1.15
2019-02-20T05:05:53.495Z,1.16
2019-02-20T05:08:23.693Z,1.18
2019-02-20T05:10:53.829Z,1.05
2019-02-20T05:13:24.021Z,1.06
2019-02-20T05:15:54.307Z,1.20
2019-02-20T05:18:24.485Z,1.24
2019-02-20T05:20:54.910Z,1.35
2019-02-20T05:23:25.170Z,1.29
2019-02-20T05:25:55.448Z,1.32
2019-02-20T05:28:25.661Z,1.35
2019-02-20T05:30:55.916Z,1.46
2019-02-20T05:33:26.293Z,1.46
2019-02-20T05:35:56.498Z,1.47
2019-02-20T05:38:26.624Z,1.64
2019-02-20T05:40:56.817Z,1.63
2019-02-20T05:43:27.008Z,1.65
2019-02-20T05:45:57.143Z,1.65
2019-02-20T05:48:27.291Z,1.77
2019-02-20T05:50:57.394Z,1.77
2019-02-20T05:53:27.637Z,1.76
2019-02-20T05:55:57.779Z,1.82
2019-02-20T05:58:27.932Z,1.86
2019-02-20T06:00:58.173Z,1.86
2019-02-20T06:03:28.415Z,1.81
2019-02-20T06:05:58.517Z,1.83
2019-02-20T06:08:28.670Z,1.77
2019-02-20T06:10:58.863Z,1.75
2019-02-20T06:13:29.069Z,1.60
2019-02-20T06:15:59.336Z,1.53
2019-02-20T06:18:29.584Z,1.84
2019-02-20T06:20:59.950Z,1.46
2019-02-20T06:23:30.088Z,1.45
2019-02-20T06:26:00.194Z,1.44
2019-02-20T06:28:30.356Z,1.32
2019-02-20T06:31:01.504Z,1.23
2019-02-20T06:33:31.736Z,1.34
2019-02-20T06:36:01.859Z,1.32
2019-02-20T06:38:32.047Z,1.31
2019-02-20T06:41:02.172Z,1.36
2019-02-20T06:43:32.507Z,1.46
2019-02-20T06:46:02.659Z,1.53
2019-02-20T06:48:32.831Z,1.56
2019-02-20T06:51:04.056Z,1.60
2019-02-20T06:53:34.194Z,1.70
2019-02-20T06:56:04.418Z,1.67
2019-02-20T06:58:34.622Z,1.67
2019-02-20T07:01:04.806Z,1.70
2019-02-20T07:03:34.964Z,1.73
2019-02-20T07:06:40.510Z,1.77
2019-02-20T07:09:33.969Z,1.75
2019-02-20T07:12:30.201Z,1.80
2019-02-20T07:16:15.352Z,1.82
2019-02-20T07:19:17.503Z,1.95
2019-02-20T07:22:32.316Z,1.91
2019-02-20T07:25:27.388Z,1.88
2019-02-20T07:29:18.947Z,2.01
2019-02-20T07:31:49.072Z,1.95
2019-02-20T07:34:19.223Z,2.13
2019-02-20T07:36:49.374Z,2.12
2019-02-20T07:39:19.556Z,2.14
2019-02-20T07:41:49.675Z,2.22
2019-02-20T07:44:20.122Z,2.25
2019-02-20T07:46:50.221Z,2.24
2019-02-20T07:49:20.374Z,2.29
2019-02-20T07:51:50.508Z,2.38
2019-02-20T07:54:20.645Z,2.52
2019-02-20T07:56:50.788Z,2.44
2019-02-20T07:59:21.012Z,2.50
2019-02-20T08:01:51.117Z,2.52
2019-02-20T08:04:21.247Z,2.65
2019-02-20T08:06:51.447Z,2.94
2019-02-20T08:09:21.676Z,3.07
2019-02-20T08:11:52.048Z,3.31
2019-02-20T08:14:22.201Z,3.44
2019-02-20T08:16:52.938Z,3.66
2019-02-20T08:19:23.088Z,3.74
2019-02-20T08:21:53.385Z,3.87
2019-02-20T08:24:23.505Z,3.98
2019-02-20T08:26:53.660Z,4.14
2019-02-20T08:29:24.640Z,4.24
2019-02-20T08:31:54.897Z,4.38
2019-02-20T08:34:25.116Z,4.48
2019-02-20T08:36:55.315Z,4.55
2019-02-20T08:39:25.517Z,4.68
2019-02-20T08:41:55.749Z,4.89
2019-02-20T08:44:25.953Z,5.03
2019-02-20T08:46:56.099Z,5.14
2019-02-20T08:49:26.302Z,5.24
2019-02-20T08:51:56.479Z,5.40
2019-02-20T08:54:26.687Z,5.57
2019-02-20T08:56:56.849Z,5.69
2019-02-20T08:59:27.060Z,5.93
2019-02-20T09:01:57.457Z,6.14
2019-02-20T09:04:27.653Z,6.23
2019-02-20T09:06:57.985Z,6.29
2019-02-20T09:09:28.175Z,6.41
2019-02-20T09:11:58.394Z,6.53
2019-02-20T09:14:28.530Z,6.66
2019-02-20T09:16:58.869Z,6.78
2019-02-20T09:19:29.157Z,7.01
2019-02-20T09:21:59.550Z,7.18
2019-02-20T09:24:29.679Z,7.33
2019-02-20T09:26:59.921Z,7.57
2019-02-20T09:29:30.348Z,7.79
2019-02-20T09:32:00.652Z,7.81
2019-02-20T09:34:30.863Z,7.90
2019-02-20T09:37:01.219Z,8.14
2019-02-20T09:39:38.864Z,8.33
2019-02-20T09:42:20.943Z,8.45
2019-02-20T09:44:52.460Z,8.43
2019-02-20T09:47:22.782Z,8.61
2019-02-20T09:49:52.973Z,8.97
2019-02-20T09:52:23.283Z,9.03
2019-02-20T09:54:53.376Z,9.09
2019-02-20T09:57:23.686Z,9.26
2019-02-20T09:59:53.904Z,9.37
2019-02-20T10:02:24.158Z,9.71
2019-02-20T10:04:54.360Z,9.64
2019-02-20T10:07:24.609Z,9.27
2019-02-20T10:09:54.744Z,9.45
2019-02-20T10:12:24.952Z,9.39
2019-02-20T10:14:55.088Z,9.80
2019-02-20T10:17:27.439Z,9.65
2019-02-20T10:19:57.590Z,9.81
2019-02-20T10:22:27.952Z,10.08
2019-02-20T10:24:58.237Z,10.12
2019-02-20T10:27:28.536Z,10.18
2019-02-20T10:29:58.712Z,10.02
2019-02-20T10:32:29.104Z,10.12
2019-02-20T10:34:59.261Z,10.62
2019-02-20T10:37:29.531Z,9.97
2019-02-20T10:39:59.855Z,10.16
2019-02-20T10:42:30.168Z,10.17
2019-02-20T10:45:00.303Z,10.69
2019-02-20T10:47:30.652Z,10.74
2019-02-20T10:50:01.072Z,10.90
2019-02-20T10:52:31.236Z,10.77
2019-02-20T10:55:01.376Z,10.92
2019-02-20T10:57:31.597Z,10.96
2019-02-20T11:00:01.815Z,11.02
2019-02-20T11:02:32.045Z,11.16
2019-02-20T11:05:02.172Z,11.25
2019-02-20T11:07:32.359Z,11.51
2019-02-20T11:10:02.619Z,11.80
2019-02-20T11:12:32.776Z,11.68
2019-02-20T11:15:02.953Z,11.74
2019-02-20T11:17:33.083Z,11.39
2019-02-20T11:20:03.327Z,11.11
2019-02-20T11:22:33.629Z,10.80
2019-02-20T11:25:03.953Z,11.16
2019-02-20T11:27:34.238Z,11.06
2019-02-20T11:30:04.788Z,10.94
2019-02-20T11:32:34.910Z,10.81
2019-02-20T11:35:05.845Z,10.81
2019-02-20T11:37:36.203Z,10.74
2019-02-20T11:40:07.816Z,10.83
2019-02-20T11:42:38.120Z,10.75
2019-02-20T11:45:09.159Z,10.89
2019-02-20T11:47:39.416Z,11.04
2019-02-20T11:50:10.334Z,11.19
2019-02-20T11:52:40.689Z,11.10
2019-02-20T11:55:11.087Z,11.08
2019-02-20T11:57:41.557Z,10.92
2019-02-20T12:00:12.655Z,11.02
2019-02-20T12:02:43.028Z,11.17
2019-02-20T12:05:13.756Z,11.09
2019-02-20T12:07:44.038Z,11.28
2019-02-20T12:10:15.428Z,11.31
2019-02-20T12:12:45.851Z,11.47
2019-02-20T12:15:16.849Z,11.45
2019-02-20T12:17:47.019Z,11.34
2019-02-20T12:20:17.205Z,11.41
2019-02-20T12:22:47.745Z,11.16
2019-02-20T12:25:18.186Z,11.01
2019-02-20T12:27:48.544Z,11.23
2019-02-20T12:30:18.987Z,11.21
2019-02-20T12:32:49.365Z,11.33
2019-02-20T12:35:19.771Z,11.43
2019-02-20T12:37:49.925Z,11.31
2019-02-20T12:40:20.156Z,11.44
2019-02-20T12:42:50.370Z,11.49
2019-02-20T12:45:20.525Z,11.54
2019-02-20T12:47:50.803Z,11.46
2019-02-20T12:50:21.050Z,11.40
2019-02-20T12:52:51.207Z,11.73
2019-02-20T12:55:21.512Z,12.02
2019-02-20T12:57:51.687Z,11.75
2019-02-20T13:00:22.707Z,11.76
2019-02-20T13:02:53.053Z,11.87
2019-02-20T13:05:23.472Z,11.93
2019-02-20T13:07:53.603Z,11.93
2019-02-20T13:10:23.771Z,11.87
2019-02-20T13:12:54.048Z,11.65
2019-02-20T13:15:24.269Z,11.53
2019-02-20T13:17:54.491Z,11.46
2019-02-20T13:20:24.743Z,11.76
2019-02-20T13:22:55.046Z,11.84
2019-02-20T13:25:25.393Z,11.39
2019-02-20T13:27:55.676Z,11.70
2019-02-20T13:30:25.819Z,11.70
2019-02-20T13:32:55.963Z,11.79
2019-02-20T13:35:26.131Z,11.82
2019-02-20T13:37:56.415Z,12.08
2019-02-20T13:40:26.637Z,11.93
2019-02-20T13:42:56.938Z,12.02
2019-02-20T13:45:27.292Z,11.90
2019-02-20T13:47:57.682Z,11.86
2019-02-20T13:50:28.067Z,11.96
2019-02-20T13:52:58.328Z,12.25
2019-02-20T13:55:34.440Z,12.47
2019-02-20T13:58:01.266Z,12.20
2019-02-20T14:00:31.653Z,12.27
2019-02-20T14:03:02.551Z,12.28
2019-02-20T14:05:33.001Z,12.08
2019-02-20T14:08:03.324Z,11.78
2019-02-20T14:10:33.808Z,12.18
2019-02-20T14:13:04.238Z,12.28
2019-02-20T14:15:34.681Z,12.13
2019-02-20T14:18:05.506Z,11.89
2019-02-20T14:20:35.960Z,11.82
2019-02-20T14:23:06.887Z,11.79
2019-02-20T14:25:37.337Z,11.83
2019-02-20T14:28:07.921Z,12.01
2019-02-20T14:30:38.375Z,11.86
2019-02-20T14:33:08.771Z,12.05
2019-02-20T14:35:39.162Z,11.53
2019-02-20T14:38:09.491Z,11.85
2019-02-20T14:40:39.961Z,11.71
2019-02-20T14:43:10.397Z,11.67
2019-02-20T14:45:40.897Z,11.48
2019-02-20T14:48:11.327Z,11.60
2019-02-20T14:50:41.658Z,11.52
2019-02-20T14:53:11.989Z,11.70
2019-02-20T14:55:42.295Z,11.53
2019-02-20T14:58:12.713Z,11.50
2019-02-20T15:00:43.450Z,11.37
2019-02-20T15:03:14.039Z,11.29
2019-02-20T15:05:44.560Z,11.14
2019-02-20T15:08:15.094Z,11.27
2019-02-20T15:10:45.496Z,11.14
2019-02-20T15:13:15.870Z,11.20
2019-02-20T15:15:47.452Z,11.15
2019-02-20T15:18:17.881Z,11.20
2019-02-20T15:20:48.835Z,11.19
2019-02-20T15:23:19.361Z,11.05
2019-02-20T15:25:49.681Z,10.90
2019-02-20T15:28:20.305Z,10.82
2019-02-20T15:30:50.941Z,10.78
2019-02-20T15:33:21.407Z,10.75
2019-02-20T15:35:52.066Z,10.85
2019-02-20T15:38:22.579Z,10.90
2019-02-20T15:40:52.942Z,10.84
2019-02-20T15:43:23.709Z,10.80
2019-02-20T15:45:54.048Z,10.78
2019-02-20T15:48:24.424Z,10.78
2019-02-20T15:50:54.663Z,10.68
2019-02-20T15:53:24.917Z,10.67
2019-02-20T15:55:55.238Z,10.61
2019-02-20T15:58:27.225Z,10.66
2019-02-20T16:00:57.742Z,10.68
2019-02-20T16:03:28.082Z,10.56
2019-02-20T16:05:58.333Z,10.51
2019-02-20T16:08:28.577Z,10.42
2019-02-20T16:10:59.236Z,10.33
2019-02-20T16:13:29.508Z,10.18
2019-02-20T16:15:59.760Z,10.07
2019-02-20T16:18:29.962Z,9.90
2019-02-20T16:21:00.209Z,9.84
2019-02-20T16:23:30.397Z,9.76
2019-02-20T16:26:02.209Z,9.60
2019-02-20T16:28:34.025Z,9.51
2019-02-20T16:31:04.540Z,9.32
2019-02-20T16:33:34.784Z,9.26
2019-02-20T16:36:05.091Z,9.15
2019-02-20T16:38:35.473Z,9.05
2019-02-20T16:41:05.690Z,9.00
2019-02-20T16:43:35.929Z,8.84
2019-02-20T16:46:06.297Z,8.79
2019-02-20T16:48:36.775Z,8.67
2019-02-20T16:51:07.153Z,8.59
2019-02-20T16:53:37.505Z,8.59
2019-02-20T16:56:09.024Z,8.53
2019-02-20T16:58:39.318Z,8.45
2019-02-20T17:01:09.797Z,8.36
2019-02-20T17:03:40.057Z,8.23
2019-02-20T17:06:10.355Z,8.25
2019-02-20T17:08:41.352Z,8.20
2019-02-20T17:11:11.883Z,7.93
2019-02-20T17:13:42.178Z,7.91
2019-02-20T17:16:12.392Z,7.65
2019-02-20T17:18:42.687Z,7.53
2019-02-20T17:21:13.053Z,7.41
2019-02-20T17:23:43.376Z,7.33
2019-02-20T17:26:13.719Z,7.43
2019-02-20T17:28:44.026Z,7.31
2019-02-20T17:31:14.233Z,7.22
2019-02-20T17:33:44.521Z,7.17
2019-02-20T17:36:15.239Z,7.20
2019-02-20T17:38:46.445Z,7.12
2019-02-20T17:41:17.274Z,6.99
2019-02-20T17:43:47.726Z,6.90
2019-02-20T17:46:18.718Z,6.91
2019-02-20T17:48:49.060Z,6.88
2019-02-20T17:51:19.311Z,6.74
2019-02-20T17:53:49.518Z,6.67
2019-02-20T17:56:19.835Z,6.68
2019-02-20T17:58:49.977Z,6.53
2019-02-20T18:01:20.304Z,6.36
2019-02-20T18:03:50.493Z,6.32
2019-02-20T18:06:20.673Z,6.27
2019-02-20T18:08:50.880Z,6.25
2019-02-20T18:11:21.070Z,6.19
2019-02-20T18:13:51.380Z,5.96
2019-02-20T18:16:21.618Z,5.89
2019-02-20T18:18:51.841Z,5.87
2019-02-20T18:21:22.126Z,5.90
2019-02-20T18:23:52.397Z,5.92
2019-02-20T18:26:22.517Z,5.87
2019-02-20T18:28:52.833Z,5.92
2019-02-20T18:31:23.202Z,5.75
2019-02-20T18:33:53.511Z,5.70
2019-02-20T18:36:23.865Z,5.57
2019-02-20T18:38:54.042Z,5.58
2019-02-20T18:41:24.430Z,5.50
2019-02-20T18:43:54.580Z,5.53
2019-02-20T18:46:24.777Z,5.49
2019-02-20T18:48:55.100Z,5.44
2019-02-20T18:51:25.395Z,5.47
2019-02-20T18:53:55.660Z,5.47
2019-02-20T18:56:27.026Z,5.40
2019-02-20T18:59:00.949Z,5.40
2019-02-20T19:01:31.254Z,5.34
2019-02-20T19:04:01.539Z,5.33
2019-02-20T19:06:31.685Z,5.17
2019-02-20T19:09:32.282Z,5.05
2019-02-20T19:12:59.557Z,5.10
2019-02-20T19:15:56.088Z,5.02
2019-02-20T19:19:02.369Z,5.00
2019-02-20T19:22:34.106Z,4.93
2019-02-20T19:26:01.013Z,4.94
2019-02-20T19:29:05.056Z,4.76
2019-02-20T19:32:33.838Z,4.62
2019-02-20T19:35:35.589Z,4.68
2019-02-20T19:39:04.685Z,4.66
2019-02-20T19:42:29.962Z,4.55
2019-02-20T19:45:31.504Z,4.63
2019-02-20T19:48:58.975Z,4.56
2019-02-20T19:52:12.699Z,4.52
2019-02-20T19:55:29.510Z,4.51
2019-02-20T19:59:01.391Z,4.39
2019-02-20T20:02:43.938Z,4.38
2019-02-20T20:06:22.002Z,4.38
2019-02-20T20:09:38.799Z,4.46
2019-02-20T20:12:56.909Z,4.70
2019-02-20T20:15:40.626Z,4.89
2019-02-20T20:19:01.419Z,5.09
2019-02-20T20:21:59.682Z,5.17
2019-02-20T20:25:16.258Z,5.27
2019-02-20T20:28:53.446Z,5.31
2019-02-20T20:32:03.190Z,5.38
2019-02-20T20:35:38.709Z,5.50
2019-02-20T20:38:55.970Z,5.51
2019-02-20T20:42:16.142Z,5.65
2019-02-20T20:45:35.567Z,5.67
2019-02-20T20:49:23.397Z,5.77
2019-02-20T20:52:52.817Z,5.80
2019-02-20T20:56:06.105Z,5.74
2019-02-20T20:59:18.286Z,5.74
2019-02-20T21:02:16.654Z,5.76
2019-02-20T21:05:33.434Z,5.80
2019-02-20T21:08:38.621Z,5.84
2019-02-20T21:12:13.558Z,5.83
2019-02-20T21:15:21.163Z,5.75
2019-02-20T21:18:28.861Z,5.78
2019-02-20T21:21:32.048Z,5.85
2019-02-20T21:24:30.119Z,5.90
2019-02-20T21:28:08.616Z,5.94
2019-02-20T21:31:32.260Z,5.91
2019-02-20T21:34:37.776Z,5.88
2019-02-20T21:37:52.005Z,5.83
2019-02-20T21:40:50.555Z,5.72
2019-02-20T21:43:59.502Z,5.68
2019-02-20T21:47:24.334Z,5.69
2019-02-20T21:50:31.284Z,5.63
2019-02-20T21:53:51.200Z,5.47
2019-02-20T21:56:54.116Z,5.40
2019-02-20T22:00:27.873Z,5.25
2019-02-20T22:03:42.523Z,4.98
2019-02-20T22:06:41.036Z,4.99
2019-02-20T22:09:46.099Z,4.83
2019-02-20T22:12:51.209Z,4.77
2019-02-20T22:16:15.816Z,4.76
2019-02-20T22:19:46.015Z,4.55
2019-02-20T22:22:46.753Z,4.52
2019-02-20T22:25:33.695Z,4.37
2019-02-20T22:28:59.951Z,4.24
2019-02-20T22:32:14.638Z,4.25
2019-02-20T22:35:29.727Z,4.21
2019-02-20T22:38:45.517Z,4.16
2019-02-20T22:42:04.762Z,4.12
2019-02-20T22:45:11.786Z,4.06
2019-02-20T22:48:09.554Z,4.01
2019-02-20T22:51:45.327Z,3.85
2019-02-20T22:55:25.912Z,3.92
2019-02-20T22:58:09.918Z,3.76
2019-02-20T23:02:04.675Z,3.67
2019-02-20T23:05:18.471Z,3.58
2019-02-20T23:08:01.718Z,3.48
2019-02-20T23:11:28.616Z,3.52
2019-02-20T23:14:38.652Z,3.46
2019-02-20T23:17:08.921Z,3.41
2019-02-20T23:19:39.238Z,3.28
2019-02-20T23:22:09.471Z,3.26
2019-02-20T23:24:42.028Z,3.23
2019-02-20T23:27:11.599Z,3.14
2019-02-20T23:29:41.876Z,3.17
2019-02-20T23:32:12.140Z,3.15
2019-02-20T23:34:42.509Z,3.08
2019-02-20T23:37:12.696Z,3.13
2019-02-20T23:39:42.903Z,3.04
2019-02-20T23:42:13.103Z,3.04
2019-02-20T23:44:43.844Z,2.95
2019-02-20T23:47:13.949Z,2.98
2019-02-20T23:49:44.184Z,2.88
2019-02-20T23:52:14.372Z,2.87
2019-02-20T23:54:44.529Z,2.79
2019-02-20T23:57:14.631Z,2.80
2019-02-20T23:59:44.765Z,2.84
